Time;durP1;ratioP1;P1;durP2;ratioP2;P2;SDS_P1;SDS_P2;PMS_P1;PMS_P2;Temp;Humidity;BMP_temperature;BMP_pressure;BME280_temperature;BME280_humidity;BME280_pressure;Samples;Min_cycle;Max_cycle;Signal;HPM_P1;HPM_P2
2022/05/06 00:01:22;;;;;;;1.15;0.73;;;;;;;;;;5022928;28;20120;-66
2022/05/06 00:03:51;;;;;;;1.35;0.55;;;;;;;;;;5026609;28;20074;-65
2022/05/06 00:06:20;;;;;;;0.43;0.43;;;;;;;;;;5024600;28;20568;-65
2022/05/06 00:08:48;;;;;;;0.30;0.30;;;;;;;;;;5018415;28;20048;-65
2022/05/06 00:11:16;;;;;;;0.40;0.40;;;;;;;;;;5023049;28;20164;-65
2022/05/06 00:13:45;;;;;;;0.60;0.50;;;;;;;;;;5028680;28;20481;-65
2022/05/06 00:16:13;;;;;;;0.50;0.40;;;;;;;;;;5030633;28;20369;-66
2022/05/06 00:18:43;;;;;;;0.80;0.47;;;;;;;;;;5022859;28;20120;-66
2022/05/06 00:21:11;;;;;;;0.55;0.40;;;;;;;;;;5030904;28;20041;-65
2022/05/06 00:23:40;;;;;;;0.60;0.45;;;;;;;;;;5026804;28;20100;-65
2022/05/06 00:26:08;;;;;;;0.45;0.40;;;;;;;;;;5024448;28;20049;-66
2022/05/06 00:28:37;;;;;;;1.38;0.57;;;;;;;;;;5027613;28;20574;-66
2022/05/06 00:31:06;;;;;;;0.82;0.40;;;;;;;;;;5027457;28;20045;-69
2022/05/06 00:33:35;;;;;;;0.85;0.60;;;;;;;;;;5030494;28;20045;-65
2022/05/06 00:36:07;;;;;;;0.30;0.30;;;;;;;;;;5024735;28;20068;-66
2022/05/06 00:38:36;;;;;;;0.95;0.40;;;;;;;;;;5022901;28;20164;-65
2022/05/06 00:41:07;;;;;;;2.80;0.50;;;;;;;;;;5016307;28;20050;-68
2022/05/06 00:43:39;;;;;;;1.00;0.57;;;;;;;;;;5027621;28;20041;-65
2022/05/06 00:46:11;;;;;;;1.95;0.50;;;;;;;;;;5025858;28;20132;-66
2022/05/06 00:48:41;;;;;;;4.03;0.50;;;;;;;;;;5023990;28;20125;-66
2022/05/06 00:51:11;;;;;;;0.70;0.60;;;;;;;;;;5025877;28;20091;-65
2022/05/06 00:53:43;;;;;;;0.43;0.43;;;;;;;;;;5030243;28;20085;-66
2022/05/06 00:56:12;;;;;;;0.43;0.40;;;;;;;;;;5019166;28;20140;-65
2022/05/06 00:58:40;;;;;;;1.35;0.50;;;;;;;;;;5020761;28;20145;-66
2022/05/06 01:01:08;;;;;;;0.90;0.60;;;;;;;;;;5024272;28;20053;-65
2022/05/06 01:03:37;;;;;;;1.77;0.50;;;;;;;;;;5027082;28;20366;-67
2022/05/06 01:06:10;;;;;;;0.82;0.52;;;;;;;;;;5027603;28;20092;-65
2022/05/06 01:08:40;;;;;;;0.35;0.35;;;;;;;;;;5020035;28;20478;-65
2022/05/06 01:11:08;;;;;;;0.60;0.50;;;;;;;;;;5026239;28;20081;-66
2022/05/06 01:13:40;;;;;;;2.28;0.77;;;;;;;;;;5024549;28;20053;-66
2022/05/06 01:16:08;;;;;;;1.33;0.50;;;;;;;;;;5026852;28;20038;-65
2022/05/06 01:18:37;;;;;;;1.52;0.45;;;;;;;;;;5022138;28;20049;-65
2022/05/06 01:21:10;;;;;;;1.58;0.95;;;;;;;;;;5021693;28;20081;-65
2022/05/06 01:23:40;;;;;;;1.30;0.30;;;;;;;;;;5028155;28;20469;-65
2022/05/06 01:26:08;;;;;;;0.95;0.50;;;;;;;;;;5025262;28;20583;-65
2022/05/06 01:28:38;;;;;;;1.23;0.50;;;;;;;;;;5025677;28;20132;-66
2022/05/06 01:31:07;;;;;;;2.83;0.70;;;;;;;;;;5028830;28;20140;-67
2022/05/06 01:33:36;;;;;;;1.00;0.63;;;;;;;;;;5027482;28;20173;-65
2022/05/06 01:36:09;;;;;;;1.17;0.63;;;;;;;;;;5021121;28;20556;-65
2022/05/06 01:38:38;;;;;;;1.85;0.93;;;;;;;;;;5021478;28;20059;-66
2022/05/06 01:41:09;;;;;;;1.50;0.68;;;;;;;;;;5025346;28;20077;-66
2022/05/06 01:43:40;;;;;;;1.48;0.70;;;;;;;;;;5023898;28;20168;-65
2022/05/06 01:46:09;;;;;;;1.45;0.68;;;;;;;;;;5021443;28;20133;-66
2022/05/06 01:48:37;;;;;;;1.40;0.73;;;;;;;;;;5024331;28;20052;-65
2022/05/06 01:51:07;;;;;;;1.10;0.47;;;;;;;;;;5020506;28;20045;-65
2022/05/06 01:53:35;;;;;;;1.95;0.80;;;;;;;;;;5022289;28;20145;-65
2022/05/06 01:56:08;;;;;;;1.98;0.80;;;;;;;;;;5018484;28;20140;-65
2022/05/06 01:58:37;;;;;;;1.35;0.90;;;;;;;;;;5020951;28;20124;-68
2022/05/06 02:01:08;;;;;;;2.42;0.88;;;;;;;;;;5027447;28;20140;-65
2022/05/06 02:06:22;;;;;;;1.10;0.70;;;;;;;;;;5021340;28;20103;-65
2022/05/06 02:08:51;;;;;;;1.65;0.85;;;;;;;;;;5025595;28;20107;-65
2022/05/06 02:11:20;;;;;;;4.75;1.02;;;;;;;;;;5023725;28;20046;-65
2022/05/06 02:13:49;;;;;;;5.82;0.85;;;;;;;;;;5025617;28;20080;-66
2022/05/06 02:16:17;;;;;;;3.03;1.00;;;;;;;;;;5028680;28;20087;-67
2022/05/06 02:18:46;;;;;;;2.20;1.23;;;;;;;;;;5021946;28;20524;-66
2022/05/06 02:21:14;;;;;;;3.28;0.70;;;;;;;;;;5024525;28;20280;-66
2022/05/06 02:23:42;;;;;;;2.70;0.80;;;;;;;;;;5017200;28;20089;-65
2022/05/06 02:26:11;;;;;;;1.80;0.85;;;;;;;;;;5025459;28;20128;-66
2022/05/06 02:28:41;;;;;;;3.67;1.00;;;;;;;;;;5011683;28;20140;-65
2022/05/06 02:33:55;;;;;;;2.03;0.90;;;;;;;;;;5004290;28;20053;-65
2022/05/06 02:36:23;;;;;;;4.00;1.25;;;;;;;;;;5001665;28;20077;-66
2022/05/06 02:38:52;;;;;;;2.50;1.05;;;;;;;;;;5003803;28;20141;-69
2022/05/06 02:41:20;;;;;;;0.95;0.75;;;;;;;;;;4997367;28;20084;-66
2022/05/06 02:43:50;;;;;;;2.13;1.02;;;;;;;;;;5000181;28;20073;-65
2022/05/06 02:46:18;;;;;;;1.80;0.93;;;;;;;;;;5007799;28;20136;-66
2022/05/06 02:48:47;;;;;;;2.65;1.20;;;;;;;;;;4995304;28;20041;-67
2022/05/06 02:51:15;;;;;;;3.63;0.88;;;;;;;;;;5007167;28;21329;-66
2022/05/06 02:53:43;;;;;;;2.97;1.02;;;;;;;;;;4995519;28;20140;-67
2022/05/06 02:56:12;;;;;;;4.03;1.00;;;;;;;;;;4999061;28;20128;-66
2022/05/06 02:58:40;;;;;;;1.00;0.90;;;;;;;;;;4993134;28;20140;-66
2022/05/06 03:01:10;;;;;;;1.75;1.05;;;;;;;;;;5007490;28;20465;-66
2022/05/06 03:03:38;;;;;;;3.00;1.50;;;;;;;;;;4986186;28;20047;-66
2022/05/06 03:06:06;;;;;;;1.48;0.95;;;;;;;;;;4985551;28;20105;-67
2022/05/06 03:08:35;;;;;;;1.65;1.00;;;;;;;;;;4978560;28;20086;-66
2022/05/06 03:11:07;;;;;;;2.83;1.20;;;;;;;;;;4979583;28;20114;-66
2022/05/06 03:13:35;;;;;;;3.83;1.48;;;;;;;;;;4980667;28;20134;-65
2022/05/06 03:16:06;;;;;;;2.50;1.10;;;;;;;;;;4983242;28;20077;-67
2022/05/06 03:18:36;;;;;;;1.63;1.15;;;;;;;;;;4972649;28;20141;-65
2022/05/06 03:21:07;;;;;;;3.22;1.30;;;;;;;;;;4975943;28;20475;-67
2022/05/06 03:23:36;;;;;;;2.63;0.95;;;;;;;;;;4986733;28;20918;-66
2022/05/06 03:26:07;;;;;;;2.35;1.38;;;;;;;;;;4980890;28;20137;-66
2022/05/06 03:28:35;;;;;;;1.50;0.90;;;;;;;;;;4982031;28;20130;-66
2022/05/06 03:31:07;;;;;;;2.63;1.40;;;;;;;;;;4988474;28;20161;-66
2022/05/06 03:33:36;;;;;;;2.30;0.98;;;;;;;;;;4974507;28;20057;-66
2022/05/06 03:36:08;;;;;;;2.17;1.17;;;;;;;;;;4979442;28;20137;-67
2022/05/06 03:38:36;;;;;;;5.75;1.30;;;;;;;;;;4997999;28;20113;-66
2022/05/06 03:41:07;;;;;;;2.13;1.25;;;;;;;;;;4998660;28;20050;-66
2022/05/06 03:43:36;;;;;;;2.53;1.40;;;;;;;;;;5001273;28;20446;-67
2022/05/06 03:46:07;;;;;;;4.75;1.48;;;;;;;;;;5008009;28;20510;-69
2022/05/06 03:48:37;;;;;;;3.45;1.42;;;;;;;;;;5002937;28;20065;-66
2022/05/06 03:51:22;;;;;;;2.90;1.10;;;;;;;;;;5007411;28;20128;-66
2022/05/06 03:53:50;;;;;;;2.45;1.20;;;;;;;;;;4996594;28;20541;-66
2022/05/06 03:56:18;;;;;;;2.47;1.30;;;;;;;;;;5011842;28;20077;-66
2022/05/06 03:58:47;;;;;;;2.33;1.30;;;;;;;;;;4992439;28;20062;-66
2022/05/06 04:01:17;;;;;;;2.85;1.30;;;;;;;;;;4990731;28;20455;-66
2022/05/06 04:03:47;;;;;;;2.05;1.00;;;;;;;;;;4994704;28;20042;-67
2022/05/06 04:06:15;;;;;;;6.20;1.48;;;;;;;;;;5001815;28;20181;-66
2022/05/06 04:08:44;;;;;;;1.40;1.10;;;;;;;;;;5006576;28;20049;-66
2022/05/06 04:11:13;;;;;;;2.78;1.10;;;;;;;;;;5003128;28;20570;-66
2022/05/06 04:13:41;;;;;;;1.85;1.20;;;;;;;;;;5002568;28;20133;-66
2022/05/06 04:16:09;;;;;;;3.38;1.20;;;;;;;;;;5008108;28;20056;-66
2022/05/06 04:18:38;;;;;;;2.33;1.35;;;;;;;;;;5004530;28;20066;-68
2022/05/06 04:23:54;;;;;;;2.00;1.20;;;;;;;;;;4997298;28;20112;-67
2022/05/06 04:26:22;;;;;;;2.58;1.10;;;;;;;;;;4995764;28;20133;-66
2022/05/06 04:28:50;;;;;;;4.18;1.50;;;;;;;;;;5008107;28;20104;-67
2022/05/06 04:31:18;;;;;;;5.07;1.30;;;;;;;;;;5018907;28;20140;-67
2022/05/06 04:33:47;;;;;;;1.80;1.23;;;;;;;;;;5022349;28;20128;-66
2022/05/06 04:36:16;;;;;;;3.20;1.80;;;;;;;;;;5024448;28;20132;-66
2022/05/06 04:38:45;;;;;;;4.93;1.48;;;;;;;;;;5010960;28;20496;-66
2022/05/06 04:41:13;;;;;;;3.08;1.50;;;;;;;;;;5010016;28;20485;-66
2022/05/06 04:43:42;;;;;;;4.38;1.40;;;;;;;;;;5011873;28;20129;-65
2022/05/06 04:46:10;;;;;;;2.75;1.50;;;;;;;;;;5003598;28;20486;-66
2022/05/06 04:48:38;;;;;;;3.20;1.77;;;;;;;;;;5019717;28;20057;-66
2022/05/06 04:51:07;;;;;;;2.65;1.33;;;;;;;;;;5017179;28;20425;-66
2022/05/06 04:53:36;;;;;;;3.28;1.50;;;;;;;;;;5027490;28;20144;-65
2022/05/06 04:56:07;;;;;;;5.80;1.88;;;;;;;;;;5027185;28;20458;-66
2022/05/06 04:58:36;;;;;;;3.45;1.60;;;;;;;;;;5027287;28;20576;-66
2022/05/06 05:01:07;;;;;;;2.05;1.42;;;;;;;;;;5017729;28;20296;-66
2022/05/06 05:03:35;;;;;;;2.35;1.23;;;;;;;;;;5026725;28;20136;-69
2022/05/06 05:06:07;;;;;;;2.90;1.60;;;;;;;;;;5029009;28;20458;-66
2022/05/06 05:08:37;;;;;;;4.72;1.52;;;;;;;;;;5022715;28;20081;-67
2022/05/06 05:11:08;;;;;;;2.35;1.10;;;;;;;;;;5026891;28;20124;-65
2022/05/06 05:13:38;;;;;;;2.17;1.33;;;;;;;;;;5023902;28;20089;-66
2022/05/06 05:16:07;;;;;;;2.75;1.42;;;;;;;;;;5021528;28;20481;-65
2022/05/06 05:18:35;;;;;;;2.70;1.20;;;;;;;;;;5025851;28;20045;-66
2022/05/06 05:21:06;;;;;;;2.92;1.20;;;;;;;;;;5015538;28;20045;-67
2022/05/06 05:23:35;;;;;;;2.47;1.27;;;;;;;;;;5027304;28;20049;-65
2022/05/06 05:26:11;;;;;;;2.30;1.20;;;;;;;;;;5027848;28;20497;-66
2022/05/06 05:28:40;;;;;;;1.67;1.20;;;;;;;;;;5026626;28;20045;-66
2022/05/06 05:31:08;;;;;;;1.10;0.90;;;;;;;;;;5014257;28;20128;-66
2022/05/06 05:33:36;;;;;;;2.10;1.23;;;;;;;;;;5029665;28;20046;-66
2022/05/06 05:36:08;;;;;;;4.05;1.23;;;;;;;;;;5013092;28;20077;-65
2022/05/06 05:38:38;;;;;;;2.80;1.38;;;;;;;;;;5011889;28;20081;-69
2022/05/06 05:41:08;;;;;;;1.48;1.15;;;;;;;;;;5012640;28;20081;-65
2022/05/06 05:49:09;;;;;;;1.77;1.00;;;;;;;;;;5012439;28;20041;-67
2022/05/06 05:51:37;;;;;;;2.40;1.30;;;;;;;;;;5027560;28;20049;-66
2022/05/06 05:54:06;;;;;;;3.22;1.00;;;;;;;;;;5032313;28;20103;-65
2022/05/06 05:56:36;;;;;;;1.30;1.00;;;;;;;;;;5030958;28;20054;-65
2022/05/06 05:59:04;;;;;;;1.65;0.98;;;;;;;;;;5011439;28;20042;-66
2022/05/06 06:01:32;;;;;;;2.15;1.30;;;;;;;;;;5013029;28;20066;-70
2022/05/06 06:04:01;;;;;;;2.50;1.23;;;;;;;;;;5026146;28;20046;-66
2022/05/06 06:06:35;;;;;;;3.75;1.60;;;;;;;;;;5025041;28;20144;-68
2022/05/06 06:09:04;;;;;;;2.55;1.30;;;;;;;;;;5010365;28;20045;-68
2022/05/06 06:11:32;;;;;;;4.10;1.13;;;;;;;;;;5009868;28;20046;-66
2022/05/06 06:14:02;;;;;;;3.15;1.52;;;;;;;;;;4999313;28;20132;-66
2022/05/06 06:16:31;;;;;;;2.63;1.30;;;;;;;;;;5010917;28;20092;-66
2022/05/06 06:18:59;;;;;;;2.90;1.40;;;;;;;;;;5017746;28;20418;-66
2022/05/06 06:21:28;;;;;;;1.45;1.13;;;;;;;;;;5016937;28;20053;-66
2022/05/06 06:23:56;;;;;;;3.50;1.20;;;;;;;;;;5012260;28;20088;-65
2022/05/06 06:26:25;;;;;;;2.05;1.20;;;;;;;;;;5024202;28;20081;-66
2022/05/06 06:28:54;;;;;;;6.18;1.08;;;;;;;;;;5028797;28;20136;-67
2022/05/06 06:31:24;;;;;;;3.08;1.15;;;;;;;;;;5024815;28;20073;-66
2022/05/06 06:33:53;;;;;;;2.83;1.40;;;;;;;;;;5029953;28;20041;-66
2022/05/06 06:36:22;;;;;;;3.22;1.15;;;;;;;;;;5013978;28;20104;-66
2022/05/06 06:38:50;;;;;;;3.15;2.00;;;;;;;;;;5010974;28;20069;-67
2022/05/06 06:41:20;;;;;;;5.80;1.10;;;;;;;;;;5026831;28;20073;-66
2022/05/06 06:43:49;;;;;;;1.98;1.20;;;;;;;;;;5027444;28;20080;-65
2022/05/06 06:46:17;;;;;;;2.53;1.20;;;;;;;;;;5030492;28;20050;-67
2022/05/06 06:48:47;;;;;;;2.13;1.00;;;;;;;;;;5016932;28;20053;-65
2022/05/06 06:51:16;;;;;;;4.88;1.08;;;;;;;;;;5020877;28;20129;-66
2022/05/06 06:53:44;;;;;;;1.30;1.08;;;;;;;;;;5028434;28;20413;-66
2022/05/06 06:56:12;;;;;;;2.83;1.27;;;;;;;;;;5014040;28;20053;-66
2022/05/06 06:58:41;;;;;;;2.67;1.20;;;;;;;;;;5025834;28;20132;-66
2022/05/06 07:01:09;;;;;;;2.85;1.42;;;;;;;;;;5030014;28;20050;-66
2022/05/06 07:03:38;;;;;;;2.80;1.55;;;;;;;;;;5027464;28;20053;-66
2022/05/06 07:11:55;;;;;;;2.70;1.55;;;;;;;;;;5009118;28;20490;-67
2022/05/06 07:14:25;;;;;;;3.95;2.05;;;;;;;;;;5015723;28;20204;-67
2022/05/06 07:16:55;;;;;;;5.30;2.63;;;;;;;;;;5019524;28;20437;-66
2022/05/06 07:19:24;;;;;;;3.38;2.35;;;;;;;;;;5006416;28;20441;-67
2022/05/06 07:21:55;;;;;;;4.18;2.65;;;;;;;;;;5010444;28;20082;-70
2022/05/06 07:24:24;;;;;;;6.35;3.25;;;;;;;;;;5001267;28;20038;-66
2022/05/06 07:26:53;;;;;;;5.45;2.83;;;;;;;;;;5008460;28;20054;-66
2022/05/06 07:29:22;;;;;;;4.95;2.42;;;;;;;;;;5019519;28;20053;-68
2022/05/06 07:31:51;;;;;;;5.22;2.97;;;;;;;;;;5022000;28;20055;-67
2022/05/06 07:34:20;;;;;;;6.65;3.25;;;;;;;;;;5032865;28;20471;-66
2022/05/06 07:36:49;;;;;;;6.80;3.40;;;;;;;;;;5031109;28;20075;-66
2022/05/06 07:39:19;;;;;;;7.35;3.65;;;;;;;;;;5020940;28;20081;-67
2022/05/06 07:41:48;;;;;;;7.78;4.38;;;;;;;;;;5011397;28;20057;-67
2022/05/06 07:44:16;;;;;;;6.50;3.58;;;;;;;;;;5014030;28;20254;-67
2022/05/06 07:46:45;;;;;;;9.30;3.60;;;;;;;;;;5015340;28;20847;-66
2022/05/06 07:49:16;;;;;;;7.18;3.85;;;;;;;;;;5014143;28;20463;-67
2022/05/06 07:51:44;;;;;;;7.43;3.72;;;;;;;;;;5006803;28;20497;-66
2022/05/06 07:54:13;;;;;;;8.02;4.13;;;;;;;;;;5013738;28;20046;-68
2022/05/06 07:56:43;;;;;;;8.23;4.38;;;;;;;;;;5015802;28;20134;-68
2022/05/06 07:59:12;;;;;;;7.28;3.90;;;;;;;;;;5017444;28;20103;-67
2022/05/06 08:04:34;;;;;;;9.23;4.18;;;;;;;;;;5017585;28;20053;-70
2022/05/06 08:07:03;;;;;;;8.60;4.53;;;;;;;;;;5019273;28;20057;-69
2022/05/06 08:09:32;;;;;;;9.98;4.82;;;;;;;;;;5018166;28;20655;-66
2022/05/06 08:12:03;;;;;;;9.52;4.55;;;;;;;;;;5019381;28;20096;-67
2022/05/06 08:14:32;;;;;;;10.27;4.95;;;;;;;;;;5019107;28;20046;-66
2022/05/06 08:17:02;;;;;;;10.85;5.03;;;;;;;;;;5025945;28;20163;-67
2022/05/06 08:19:31;;;;;;;8.85;4.93;;;;;;;;;;5025112;28;20053;-69
2022/05/06 08:22:00;;;;;;;12.05;5.82;;;;;;;;;;5012018;28;20085;-68
2022/05/06 08:24:28;;;;;;;11.35;5.28;;;;;;;;;;5017662;28;20223;-67
2022/05/06 08:26:57;;;;;;;11.68;5.72;;;;;;;;;;5024395;28;20626;-67
2022/05/06 08:29:28;;;;;;;11.55;5.88;;;;;;;;;;5004422;28;20299;-66
2022/05/06 08:31:57;;;;;;;9.40;5.28;;;;;;;;;;5012430;28;20038;-69
2022/05/06 08:34:26;;;;;;;10.88;5.68;;;;;;;;;;5010406;28;20073;-66
2022/05/06 08:36:55;;;;;;;13.27;5.45;;;;;;;;;;5009305;28;20108;-67
2022/05/06 08:39:24;;;;;;;11.32;6.07;;;;;;;;;;5026497;28;20046;-66
2022/05/06 08:41:54;;;;;;;10.98;6.40;;;;;;;;;;5025139;28;20033;-68
2022/05/06 08:52:45;;;;;;;13.02;6.63;;;;;;;;;;5008727;28;20045;-66
2022/05/06 08:55:14;;;;;;;15.13;8.18;;;;;;;;;;5002249;28;20132;-66
2022/05/06 08:57:44;;;;;;;13.90;7.88;;;;;;;;;;5014864;28;20053;-67
2022/05/06 09:00:13;;;;;;;13.02;7.35;;;;;;;;;;5027142;28;20076;-66
2022/05/06 09:02:43;;;;;;;16.88;8.70;;;;;;;;;;5025117;28;20069;-67
2022/05/06 09:05:18;;;;;;;14.60;7.47;;;;;;;;;;5015310;28;20050;-66
2022/05/06 09:07:55;;;;;;;17.25;9.32;;;;;;;;;;5020506;28;20042;-67
2022/05/06 09:10:24;;;;;;;17.83;8.13;;;;;;;;;;4992748;28;20069;-69
2022/05/06 09:12:56;;;;;;;16.70;8.43;;;;;;;;;;5002971;28;20042;-66
2022/05/06 09:18:11;;;;;;;15.70;8.45;;;;;;;;;;5000400;28;20053;-67
2022/05/06 09:20:44;;;;;;;19.50;9.43;;;;;;;;;;5012512;28;20046;-67
2022/05/06 09:23:24;;;;;;;19.13;9.85;;;;;;;;;;5008226;28;20054;-66
2022/05/06 09:25:53;;;;;;;18.20;9.75;;;;;;;;;;5001833;28;20050;-68
2022/05/06 09:28:23;;;;;;;15.57;8.85;;;;;;;;;;5008617;28;20489;-66
2022/05/06 09:31:00;;;;;;;16.77;8.90;;;;;;;;;;5012458;28;20052;-66
2022/05/06 09:33:32;;;;;;;18.00;8.93;;;;;;;;;;5000018;28;20112;-66
2022/05/06 09:36:21;;;;;;;20.02;9.73;;;;;;;;;;5007352;28;20046;-67
2022/05/06 09:39:01;;;;;;;15.52;8.50;;;;;;;;;;5006167;28;20077;-67
2022/05/06 09:41:30;;;;;;;19.35;9.35;;;;;;;;;;5007310;28;20085;-67
2022/05/06 09:44:01;;;;;;;20.00;9.68;;;;;;;;;;4998412;28;20054;-69
2022/05/06 09:46:30;;;;;;;16.95;9.23;;;;;;;;;;5011615;28;20050;-67
2022/05/06 09:49:00;;;;;;;15.65;8.95;;;;;;;;;;5001550;28;20065;-68
2022/05/06 09:51:33;;;;;;;18.95;10.27;;;;;;;;;;5000414;28;20368;-67
2022/05/06 09:54:02;;;;;;;20.13;10.52;;;;;;;;;;4999401;28;20050;-68
2022/05/06 09:56:31;;;;;;;19.70;9.63;;;;;;;;;;5007326;28;20386;-67
2022/05/06 09:59:00;;;;;;;16.83;9.50;;;;;;;;;;5001615;28;20054;-67
2022/05/06 10:01:28;;;;;;;21.70;11.07;;;;;;;;;;5008514;28;20124;-68
2022/05/06 10:03:57;;;;;;;18.98;9.68;;;;;;;;;;5003176;28;20050;-71
2022/05/06 10:06:26;;;;;;;19.45;10.48;;;;;;;;;;5006606;28;20049;-67
2022/05/06 10:08:58;;;;;;;17.70;9.65;;;;;;;;;;5011391;28;20406;-67
2022/05/06 10:11:28;;;;;;;18.80;9.75;;;;;;;;;;5012206;28;20053;-67
2022/05/06 10:13:58;;;;;;;17.77;9.98;;;;;;;;;;5010019;28;20042;-69
2022/05/06 10:16:34;;;;;;;20.00;10.48;;;;;;;;;;5012285;28;20479;-67
2022/05/06 10:19:03;;;;;;;21.17;10.52;;;;;;;;;;5001931;28;20109;-68
2022/05/06 10:21:47;;;;;;;20.13;11.07;;;;;;;;;;4993089;28;20058;-68
2022/05/06 10:24:17;;;;;;;19.10;10.88;;;;;;;;;;5004261;28;20085;-67
2022/05/06 10:26:46;;;;;;;19.25;9.57;;;;;;;;;;5011593;28;20120;-67
2022/05/06 10:32:52;;;;;;;20.17;10.02;;;;;;;;;;5012182;28;20085;-67
2022/05/06 10:35:20;;;;;;;17.98;10.50;;;;;;;;;;5001958;28;20057;-68
2022/05/06 10:37:49;;;;;;;17.27;9.68;;;;;;;;;;4998099;28;20053;-67
2022/05/06 10:40:34;;;;;;;22.20;10.80;;;;;;;;;;5010294;28;20089;-68
2022/05/06 10:43:04;;;;;;;19.90;10.27;;;;;;;;;;5010094;28;20046;-72
2022/05/06 10:45:35;;;;;;;17.38;10.35;;;;;;;;;;5003417;28;20497;-68
2022/05/06 10:48:18;;;;;;;22.90;10.98;;;;;;;;;;4991458;28;20402;-69
2022/05/06 10:50:46;;;;;;;24.02;10.23;;;;;;;;;;4994106;28;20047;-67
2022/05/06 10:53:33;;;;;;;18.83;10.10;;;;;;;;;;4996313;28;20072;-67
2022/05/06 10:56:07;;;;;;;19.23;9.80;;;;;;;;;;5010552;28;20109;-68
2022/05/06 10:58:36;;;;;;;20.27;10.35;;;;;;;;;;5010387;28;20054;-67
2022/05/06 11:01:08;;;;;;;19.00;10.50;;;;;;;;;;5011050;28;20071;-68
2022/05/06 11:03:37;;;;;;;21.52;9.93;;;;;;;;;;5002498;28;20056;-68
2022/05/06 11:06:10;;;;;;;19.77;10.50;;;;;;;;;;4983740;28;20047;-68
2022/05/06 11:08:39;;;;;;;18.38;10.05;;;;;;;;;;4989005;28;20054;-68
2022/05/06 11:11:17;;;;;;;16.35;9.55;;;;;;;;;;4976453;28;20141;-68
2022/05/06 11:13:47;;;;;;;19.15;9.68;;;;;;;;;;4985406;28;20108;-67
2022/05/06 11:16:17;;;;;;;19.10;10.73;;;;;;;;;;4980654;28;20424;-69
2022/05/06 11:18:47;;;;;;;19.52;10.18;;;;;;;;;;4985966;28;20058;-68
2022/05/06 11:21:22;;;;;;;24.02;10.32;;;;;;;;;;4990195;28;20050;-68
2022/05/06 11:23:51;;;;;;;19.13;10.25;;;;;;;;;;4989329;28;20097;-68
2022/05/06 11:26:29;;;;;;;20.13;10.10;;;;;;;;;;4973586;28;20406;-67
2022/05/06 11:29:02;;;;;;;17.05;9.75;;;;;;;;;;4981641;28;20050;-71
2022/05/06 11:31:30;;;;;;;21.85;10.05;;;;;;;;;;4984063;28;20046;-68
2022/05/06 11:34:03;;;;;;;18.10;9.55;;;;;;;;;;4987113;28;20046;-68
2022/05/06 11:36:32;;;;;;;18.75;9.60;;;;;;;;;;4990243;28;20089;-68
2022/05/06 11:39:10;;;;;;;22.83;10.25;;;;;;;;;;4981722;28;20050;-68
2022/05/06 11:41:40;;;;;;;18.20;10.32;;;;;;;;;;4982773;28;20407;-70
2022/05/06 11:44:10;;;;;;;20.13;10.52;;;;;;;;;;4985935;28;20051;-69
2022/05/06 11:49:26;;;;;;;17.90;8.80;;;;;;;;;;4982316;28;20141;-69
2022/05/06 11:51:56;;;;;;;18.00;10.00;;;;;;;;;;4981268;28;20038;-69
2022/05/06 11:54:26;;;;;;;19.23;9.88;;;;;;;;;;4982778;28;20092;-68
2022/05/06 11:56:56;;;;;;;20.20;10.68;;;;;;;;;;4981418;28;20053;-68
2022/05/06 11:59:25;;;;;;;17.38;10.45;;;;;;;;;;4986218;28;20506;-68
2022/05/06 12:01:54;;;;;;;18.40;9.55;;;;;;;;;;4981368;28;20057;-68
2022/05/06 12:04:31;;;;;;;20.20;10.63;;;;;;;;;;4981936;28;20066;-70
2022/05/06 12:07:00;;;;;;;17.92;9.25;;;;;;;;;;4982378;28;20058;-72
2022/05/06 12:09:29;;;;;;;16.85;8.82;;;;;;;;;;4983103;28;20133;-69
2022/05/06 12:12:07;;;;;;;17.85;9.20;;;;;;;;;;4982636;28;20061;-69
2022/05/06 12:14:36;;;;;;;18.17;9.23;;;;;;;;;;4983806;28;20061;-69
2022/05/06 12:17:06;;;;;;;16.40;9.23;;;;;;;;;;4992870;28;20054;-69
2022/05/06 12:19:36;;;;;;;15.70;8.90;;;;;;;;;;4989576;28;20050;-70
2022/05/06 12:22:06;;;;;;;18.58;8.25;;;;;;;;;;4989121;28;20077;-69
2022/05/06 12:24:45;;;;;;;13.40;8.50;;;;;;;;;;4991706;28;20065;-69
2022/05/06 12:27:24;;;;;;;17.48;9.25;;;;;;;;;;4975534;28;20057;-69
2022/05/06 12:29:53;;;;;;;15.77;8.82;;;;;;;;;;4986888;28;20085;-71
2022/05/06 12:32:22;;;;;;;19.67;8.98;;;;;;;;;;4983019;28;20060;-68
2022/05/06 12:35:02;;;;;;;20.35;9.77;;;;;;;;;;4982218;28;20096;-68
2022/05/06 12:37:32;;;;;;;18.05;8.75;;;;;;;;;;4983557;28;20048;-69
2022/05/06 12:40:01;;;;;;;17.48;9.15;;;;;;;;;;4982293;28;20102;-71
2022/05/06 12:42:31;;;;;;;13.48;8.10;;;;;;;;;;4990841;28;20046;-69
2022/05/06 12:45:20;;;;;;;14.15;8.65;;;;;;;;;;4991350;28;20047;-69
2022/05/06 12:50:35;;;;;;;19.30;9.05;;;;;;;;;;4990599;28;20113;-70
2022/05/06 12:53:03;;;;;;;15.77;9.23;;;;;;;;;;4980271;28;20383;-69
2022/05/06 12:55:33;;;;;;;14.52;8.32;;;;;;;;;;4988570;28;20418;-69
2022/05/06 12:58:03;;;;;;;13.70;8.13;;;;;;;;;;4987337;28;20051;-69
2022/05/06 13:00:32;;;;;;;16.33;8.80;;;;;;;;;;4990519;28;20088;-68
2022/05/06 13:03:02;;;;;;;17.00;8.65;;;;;;;;;;4993649;28;20097;-70
2022/05/06 13:05:31;;;;;;;14.23;8.43;;;;;;;;;;4986712;28;20408;-68
2022/05/06 13:08:05;;;;;;;20.90;9.40;;;;;;;;;;4983527;28;20039;-70
2022/05/06 13:10:34;;;;;;;19.98;9.95;;;;;;;;;;4983930;28;20050;-69
2022/05/06 13:13:05;;;;;;;18.25;8.77;;;;;;;;;;4986989;28;20054;-69
2022/05/06 13:15:34;;;;;;;15.30;8.07;;;;;;;;;;4984557;28;20129;-69
2022/05/06 13:18:02;;;;;;;15.77;8.02;;;;;;;;;;4990161;28;20050;-66
2022/05/06 13:20:32;;;;;;;18.23;9.52;;;;;;;;;;4990637;28;20047;-68
2022/05/06 13:23:01;;;;;;;18.00;8.85;;;;;;;;;;4984144;28;20082;-71
2022/05/06 13:25:30;;;;;;;18.92;9.50;;;;;;;;;;4980029;28;20141;-69
2022/05/06 13:27:59;;;;;;;13.25;8.05;;;;;;;;;;4979223;28;20062;-69
2022/05/06 13:30:29;;;;;;;11.52;6.97;;;;;;;;;;4984187;28;20050;-68
2022/05/06 13:32:58;;;;;;;15.30;7.95;;;;;;;;;;4981901;28;20061;-69
2022/05/06 13:35:28;;;;;;;13.73;7.40;;;;;;;;;;4983610;28;20137;-69
2022/05/06 13:37:57;;;;;;;9.75;6.57;;;;;;;;;;4986862;28;20554;-69
2022/05/06 13:40:25;;;;;;;15.40;8.05;;;;;;;;;;4981110;28;20143;-68
2022/05/06 13:42:54;;;;;;;11.85;6.90;;;;;;;;;;4979058;28;20609;-68
2022/05/06 13:45:24;;;;;;;14.68;7.45;;;;;;;;;;4970174;28;20051;-69
2022/05/06 13:47:54;;;;;;;11.80;6.97;;;;;;;;;;4989845;28;20488;-69
2022/05/06 13:50:23;;;;;;;13.02;6.20;;;;;;;;;;5003360;28;20058;-69
2022/05/06 13:52:52;;;;;;;12.82;6.70;;;;;;;;;;5005007;28;20046;-69
2022/05/06 13:55:20;;;;;;;11.57;6.20;;;;;;;;;;5009692;28;20053;-69
2022/05/06 14:00:37;;;;;;;9.73;5.80;;;;;;;;;;4985967;28;20057;-69
2022/05/06 14:03:07;;;;;;;12.65;6.88;;;;;;;;;;4987126;28;20132;-69
2022/05/06 14:05:35;;;;;;;9.98;6.00;;;;;;;;;;4979893;28;20429;-68
2022/05/06 14:08:04;;;;;;;10.82;6.30;;;;;;;;;;4979139;28;20054;-68
2022/05/06 14:10:32;;;;;;;9.63;6.05;;;;;;;;;;5001217;28;20155;-68
2022/05/06 14:13:01;;;;;;;13.00;6.03;;;;;;;;;;5000395;28;20616;-71
2022/05/06 14:15:29;;;;;;;8.85;5.53;;;;;;;;;;4999383;28;20446;-69
2022/05/06 14:17:58;;;;;;;13.07;6.07;;;;;;;;;;4997920;28;20054;-69
2022/05/06 14:20:28;;;;;;;11.13;5.80;;;;;;;;;;5002500;28;20441;-69
2022/05/06 14:22:57;;;;;;;9.60;6.25;;;;;;;;;;5004545;28;20049;-68
2022/05/06 14:25:26;;;;;;;11.30;5.80;;;;;;;;;;5005958;28;20127;-68
2022/05/06 14:27:54;;;;;;;10.48;5.95;;;;;;;;;;5002177;28;20050;-69
2022/05/06 14:30:23;;;;;;;9.40;5.80;;;;;;;;;;4994941;28;20046;-69
2022/05/06 14:32:51;;;;;;;12.10;5.80;;;;;;;;;;5000277;28;20042;-68
2022/05/06 14:35:20;;;;;;;11.25;5.65;;;;;;;;;;4997670;28;20045;-70
2022/05/06 14:37:51;;;;;;;9.43;5.63;;;;;;;;;;5008092;28;20061;-67
2022/05/06 14:40:20;;;;;;;11.88;6.65;;;;;;;;;;5009102;28;20096;-67
2022/05/06 14:42:49;;;;;;;11.57;6.80;;;;;;;;;;5006241;28;20049;-67
2022/05/06 14:45:18;;;;;;;11.65;5.75;;;;;;;;;;5010481;28;20057;-67
2022/05/06 14:47:46;;;;;;;11.45;6.55;;;;;;;;;;5010239;28;20096;-67
2022/05/06 14:50:15;;;;;;;11.57;6.43;;;;;;;;;;5004960;28;20218;-67
2022/05/06 14:52:44;;;;;;;11.20;6.65;;;;;;;;;;4994131;28;20054;-67
2022/05/06 14:55:14;;;;;;;11.10;6.45;;;;;;;;;;4997412;28;20065;-67
2022/05/06 14:57:43;;;;;;;11.82;7.03;;;;;;;;;;5009869;28;20057;-66
2022/05/06 15:00:12;;;;;;;15.57;6.88;;;;;;;;;;5000849;28;20102;-67
2022/05/06 15:02:41;;;;;;;12.40;6.63;;;;;;;;;;5010787;28;20058;-67
2022/05/06 15:05:11;;;;;;;13.27;7.25;;;;;;;;;;5010591;28;20043;-70
2022/05/06 15:07:40;;;;;;;16.60;7.78;;;;;;;;;;5004409;28;20056;-67
2022/05/06 15:10:10;;;;;;;13.77;7.60;;;;;;;;;;4994254;28;20409;-67
2022/05/06 15:12:40;;;;;;;14.90;7.22;;;;;;;;;;5009859;28;20548;-67
2022/05/06 15:15:08;;;;;;;13.98;8.25;;;;;;;;;;5010525;28;20076;-67
2022/05/06 15:17:37;;;;;;;16.25;8.55;;;;;;;;;;5009055;28;20110;-68
2022/05/06 15:20:12;;;;;;;11.80;7.22;;;;;;;;;;5008482;28;20449;-67
2022/05/06 15:22:40;;;;;;;16.60;7.95;;;;;;;;;;4987550;28;20054;-68
2022/05/06 15:25:09;;;;;;;12.88;7.00;;;;;;;;;;4982030;28;20101;-67
2022/05/06 15:27:37;;;;;;;17.92;8.32;;;;;;;;;;4987590;28;20057;-67
2022/05/06 15:30:08;;;;;;;17.10;8.60;;;;;;;;;;5004021;28;20045;-67
2022/05/06 15:32:36;;;;;;;18.17;8.32;;;;;;;;;;4995670;28;20054;-67
2022/05/06 15:35:05;;;;;;;17.30;7.85;;;;;;;;;;4991511;28;20054;-69
2022/05/06 15:37:33;;;;;;;15.27;7.88;;;;;;;;;;4995750;28;20077;-66